Orbital elements of FENGYUN 1C DEB
| Launched | 9 May 1999 |
| Flight ended | – |
| Launch site | Taiyuan Space Center, PRC |
| Owner | People's Republic of China |
| NORAD ID | 30493 |
| Date fetched |
Epoch osculation |
Inc. [°] |
Ecc. | RA asc node [hr] |
Arg Peri. [°] |
Mean anom [°] |
Mean motion [rev/day] |
Abs. mag |
| Date fetched |
Epoch osculation |
Inc. [°] |
Ecc. | RA asc node [hr] |
Arg Peri. [°] |
Mean anom [°] |
Mean motion [rev/day] |
Abs. mag |
| 2026 May 09 17:57 | 2026 May 04 23:51:56 | 98.5781 | 0.01815 | 20.6687 | 179.2219 | 339.7338 | 13.93754 | – |
| 2026 May 08 17:57 | 2026 May 04 23:51:56 | 98.5781 | 0.01815 | 20.6687 | 179.2219 | 339.7338 | 13.93754 | – |
| 2026 May 07 17:58 | 2026 May 04 23:51:56 | 98.5781 | 0.01815 | 20.6687 | 179.2219 | 339.7338 | 13.93754 | – |
| 2026 May 06 17:57 | 2026 May 04 23:51:56 | 98.5781 | 0.01815 | 20.6687 | 179.2219 | 339.7338 | 13.93754 | – |
| 2026 May 05 17:57 | 2026 May 04 23:51:56 | 98.5781 | 0.01815 | 20.6687 | 179.2219 | 339.7338 | 13.93754 | – |
| 2026 May 04 17:57 | 2026 Apr 29 10:34:56 | 98.5782 | 0.01810 | 20.3248 | 194.6114 | 339.7338 | 13.93754 | – |
| 2026 May 03 17:57 | 2026 Apr 29 10:34:56 | 98.5782 | 0.01810 | 20.3248 | 194.6114 | 339.7338 | 13.93754 | – |
| 2026 May 02 17:57 | 2026 Apr 29 10:34:56 | 98.5782 | 0.01810 | 20.3248 | 194.6114 | 339.7338 | 13.93754 | – |
| 2026 May 01 17:56 | 2026 Apr 29 10:34:56 | 98.5782 | 0.01810 | 20.3248 | 194.6114 | 339.7338 | 13.93754 | – |
| 2026 Apr 30 17:56 | 2026 Apr 29 10:34:56 | 98.5782 | 0.01810 | 20.3248 | 194.6114 | 339.7338 | 13.93754 | – |
| 2026 Apr 29 17:57 | 2026 Apr 24 11:50:06 | 98.5779 | 0.01807 | 20.0184 | 208.3319 | 339.7338 | 13.93754 | – |
| 2026 Apr 28 17:56 | 2026 Apr 24 11:50:06 | 98.5779 | 0.01807 | 20.0184 | 208.3319 | 339.7338 | 13.93754 | – |
| 2026 Apr 27 17:58 | 2026 Apr 24 11:50:06 | 98.5779 | 0.01807 | 20.0184 | 208.3319 | 339.7338 | 13.93754 | – |
| 2026 Apr 26 17:58 | 2026 Apr 24 11:50:06 | 98.5779 | 0.01807 | 20.0184 | 208.3319 | 339.7338 | 13.93754 | – |
| 2026 Apr 25 17:58 | 2026 Apr 24 11:50:06 | 98.5779 | 0.01807 | 20.0184 | 208.3319 | 339.7338 | 13.93754 | – |
| 2026 Apr 24 17:59 | 2026 Apr 24 11:50:06 | 98.5779 | 0.01807 | 20.0184 | 208.3319 | 339.7338 | 13.93754 | – |
| 2026 Apr 23 17:57 | 2026 Apr 19 08:05:39 | 98.5776 | 0.01804 | 19.6992 | 222.6715 | 339.7338 | 13.93754 | – |
| 2026 Apr 22 17:57 | 2026 Apr 19 08:05:39 | 98.5776 | 0.01804 | 19.6992 | 222.6715 | 339.7338 | 13.93754 | – |
| 2026 Apr 21 17:57 | 2026 Apr 19 08:05:39 | 98.5776 | 0.01804 | 19.6992 | 222.6715 | 339.7338 | 13.93754 | – |
| 2026 Apr 20 17:57 | 2026 Apr 19 08:05:39 | 98.5776 | 0.01804 | 19.6992 | 222.6715 | 339.7338 | 13.93754 | – |
| 2026 Apr 19 17:58 | 2026 Apr 19 08:05:39 | 98.5776 | 0.01804 | 19.6992 | 222.6715 | 339.7338 | 13.93754 | – |
| 2026 Apr 18 17:56 | 2026 Apr 13 00:36:57 | 98.5778 | 0.01801 | 19.3084 | 240.2278 | 339.7338 | 13.93754 | – |
| 2026 Apr 16 17:57 | 2026 Apr 13 00:36:57 | 98.5778 | 0.01801 | 19.3084 | 240.2278 | 339.7338 | 13.93754 | – |
| 2026 Apr 14 17:57 | 2026 Apr 13 00:36:57 | 98.5778 | 0.01801 | 19.3084 | 240.2278 | 339.7338 | 13.93754 | – |
| 2026 Apr 13 17:57 | 2026 Apr 13 00:36:57 | 98.5778 | 0.01801 | 19.3084 | 240.2278 | 339.7338 | 13.93754 | – |
| 2026 Apr 12 17:57 | 2026 Apr 07 18:10:03 | 98.5778 | 0.01800 | 18.9822 | 254.9130 | 339.7338 | 13.93754 | – |